createdAt,value
2023-02-09T00:00:15.697Z,32.60
2023-02-09T00:02:44.150Z,30.73
2023-02-09T00:05:13.023Z,31.90
2023-02-09T00:07:42.084Z,29.27
2023-02-09T00:10:14.809Z,33.60
2023-02-09T00:13:00.927Z,29.35
2023-02-09T00:15:32.181Z,31.15
2023-02-09T00:18:03.762Z,36.88
2023-02-09T00:20:32.123Z,38.97
2023-02-09T00:23:05.743Z,31.25
2023-02-09T00:25:36.120Z,31.45
2023-02-09T00:28:04.561Z,34.40
2023-02-09T00:30:33.291Z,37.67
2023-02-09T00:33:01.811Z,29.70
2023-02-09T00:35:30.992Z,39.75
2023-02-09T00:37:59.994Z,30.77
2023-02-09T00:40:28.658Z,27.70
2023-02-09T00:43:00.654Z,37.53
2023-02-09T00:45:29.429Z,31.20
2023-02-09T00:47:57.669Z,28.77
2023-02-09T00:50:26.383Z,30.65
2023-02-09T00:52:54.764Z,29.00
2023-02-09T00:55:23.728Z,31.85
2023-02-09T00:57:52.682Z,33.15
2023-02-09T01:00:23.573Z,32.67
2023-02-09T01:02:51.951Z,35.00
2023-02-09T01:05:20.312Z,31.42
2023-02-09T01:07:48.672Z,36.33
2023-02-09T01:10:20.306Z,33.38
2023-02-09T01:12:48.720Z,31.50
2023-02-09T01:15:17.303Z,32.80
2023-02-09T01:17:47.130Z,35.67
2023-02-09T01:20:16.029Z,34.80
2023-02-09T01:22:44.456Z,32.97
2023-02-09T01:25:14.172Z,31.85
2023-02-09T01:27:42.943Z,33.72
2023-02-09T01:30:12.840Z,29.23
2023-02-09T01:32:41.749Z,32.72
2023-02-09T01:43:39.950Z,29.20
2023-02-09T01:47:21.172Z,26.20
2023-02-09T01:50:27.292Z,25.40
2023-02-09T01:52:56.062Z,27.50
2023-02-09T01:55:27.762Z,22.70
2023-02-09T01:58:04.042Z,30.10
2023-02-09T02:00:33.357Z,27.33
2023-02-09T02:03:08.171Z,31.05
2023-02-09T02:05:39.784Z,29.52
2023-02-09T02:08:13.696Z,32.65
2023-02-09T02:10:42.249Z,29.00
2023-02-09T02:13:10.903Z,26.70
2023-02-09T02:15:46.484Z,32.35
2023-02-09T02:18:36.007Z,31.70
2023-02-09T02:21:40.752Z,28.48
2023-02-09T02:24:35.722Z,26.48
2023-02-09T02:27:06.737Z,37.50
2023-02-09T02:29:59.642Z,32.85
2023-02-09T02:32:47.363Z,33.08
2023-02-09T02:35:26.306Z,32.40
2023-02-09T02:38:08.645Z,39.78
2023-02-09T02:40:51.356Z,30.63
2023-02-09T02:43:38.024Z,33.83
2023-02-09T02:46:11.171Z,33.28
2023-02-09T02:48:45.815Z,32.40
2023-02-09T02:51:20.175Z,37.83
2023-02-09T02:53:54.049Z,32.50
2023-02-09T02:56:27.016Z,32.40
2023-02-09T02:58:59.564Z,27.73
2023-02-09T03:01:32.363Z,31.15
2023-02-09T03:06:32.051Z,29.15
2023-02-09T03:09:00.939Z,26.67
2023-02-09T03:11:34.880Z,30.83
2023-02-09T03:14:35.924Z,28.77
2023-02-09T03:17:17.165Z,28.20
2023-02-09T03:19:52.901Z,31.33
2023-02-09T03:22:30.438Z,31.23
2023-02-09T03:25:04.149Z,36.25
2023-02-09T03:27:38.961Z,34.78
2023-02-09T03:30:11.614Z,31.75
2023-02-09T03:32:42.957Z,28.25
2023-02-09T03:35:15.624Z,30.08
2023-02-09T03:40:13.765Z,28.50
2023-02-09T03:42:42.207Z,32.72
2023-02-09T03:45:10.550Z,37.28
2023-02-09T03:47:38.862Z,28.70
2023-02-09T03:50:07.604Z,34.15
2023-02-09T03:52:37.032Z,35.47
2023-02-09T03:55:05.486Z,35.03
2023-02-09T03:57:36.279Z,35.33
2023-02-09T04:00:06.436Z,33.45
2023-02-09T04:02:35.014Z,33.42
2023-02-09T04:05:05.690Z,42.50
2023-02-09T04:07:35.422Z,33.15
2023-02-09T04:10:06.812Z,36.22
2023-02-09T04:12:35.230Z,33.72
2023-02-09T04:15:03.898Z,31.52
2023-02-09T04:17:32.240Z,36.60
2023-02-09T04:20:00.781Z,31.45
2023-02-09T04:22:29.190Z,31.67
2023-02-09T04:24:57.602Z,35.85
2023-02-09T04:27:28.544Z,36.03
2023-02-09T04:29:56.981Z,32.63
2023-02-09T04:32:25.316Z,32.70
2023-02-09T04:34:53.807Z,36.40
2023-02-09T04:37:22.200Z,39.53
2023-02-09T04:39:50.523Z,32.95
2023-02-09T04:42:19.153Z,30.80
2023-02-09T04:44:49.653Z,33.67
2023-02-09T04:47:17.922Z,34.38
2023-02-09T04:49:46.301Z,34.03
2023-02-09T04:52:14.659Z,31.45
2023-02-09T04:54:42.957Z,35.78
2023-02-09T04:57:28.510Z,33.13
2023-02-09T04:59:57.915Z,35.38
2023-02-09T05:02:26.200Z,39.92
2023-02-09T05:04:54.621Z,31.02
2023-02-09T05:07:23.201Z,34.78
2023-02-09T05:09:51.893Z,37.90
2023-02-09T05:12:20.218Z,34.65
2023-02-09T05:14:48.800Z,30.65
2023-02-09T05:17:21.046Z,36.17
2023-02-09T05:19:49.360Z,30.80
2023-02-09T05:22:17.754Z,31.88
2023-02-09T05:24:45.988Z,33.53
2023-02-09T05:27:17.957Z,41.22
2023-02-09T05:29:48.193Z,37.13
2023-02-09T05:32:21.719Z,35.10
2023-02-09T05:34:50.396Z,42.85
2023-02-09T05:37:18.884Z,29.00
2023-02-09T05:39:47.459Z,33.08
2023-02-09T05:42:19.374Z,37.05
2023-02-09T05:44:49.418Z,35.15
2023-02-09T05:47:19.332Z,34.92
2023-02-09T05:49:48.677Z,36.90
2023-02-09T05:52:18.005Z,45.28
2023-02-09T05:54:46.770Z,33.97
2023-02-09T05:57:15.515Z,36.05
2023-02-09T05:59:43.923Z,39.65
2023-02-09T06:02:14.432Z,30.92
2023-02-09T06:04:42.729Z,38.08
2023-02-09T06:07:12.264Z,33.78
2023-02-09T06:09:40.470Z,33.67
2023-02-09T06:12:09.197Z,31.40
2023-02-09T06:14:37.553Z,36.55
2023-02-09T06:17:06.248Z,32.67
2023-02-09T06:19:34.574Z,39.03
2023-02-09T06:22:02.830Z,36.83
2023-02-09T06:24:35.745Z,36.95
2023-02-09T06:27:04.040Z,34.13
2023-02-09T06:29:32.393Z,36.65
2023-02-09T06:32:00.946Z,34.10
2023-02-09T06:34:29.461Z,32.35
2023-02-09T06:36:57.718Z,32.95
2023-02-09T06:39:26.404Z,30.73
2023-02-09T06:41:55.857Z,29.83
2023-02-09T06:44:24.342Z,34.05
2023-02-09T06:46:53.044Z,31.83
2023-02-09T06:49:24.090Z,28.63
2023-02-09T06:51:52.833Z,32.03
2023-02-09T06:54:21.559Z,28.77
2023-02-09T06:56:50.859Z,32.03
2023-02-09T06:59:20.949Z,33.38
2023-02-09T07:01:54.458Z,33.15
2023-02-09T07:04:23.851Z,33.55
2023-02-09T07:06:52.348Z,33.63
2023-02-09T07:09:20.762Z,33.22
2023-02-09T07:11:48.777Z,43.92
2023-02-09T07:14:17.169Z,31.55
2023-02-09T07:16:46.748Z,34.38
2023-02-09T07:19:15.579Z,33.00
2023-02-09T07:21:46.162Z,33.45
2023-02-09T07:24:14.862Z,38.10
2023-02-09T07:26:43.384Z,34.03
2023-02-09T07:29:12.962Z,35.53
2023-02-09T07:31:41.433Z,30.95
2023-02-09T07:34:14.577Z,40.08
2023-02-09T07:36:43.246Z,36.50
2023-02-09T07:39:11.608Z,35.53
2023-02-09T07:41:40.097Z,31.77
2023-02-09T07:44:09.419Z,34.47
2023-02-09T07:46:37.727Z,39.58
2023-02-09T07:49:10.412Z,37.45
2023-02-09T07:54:08.630Z,29.77
2023-02-09T07:56:36.981Z,31.08
2023-02-09T07:59:06.412Z,35.28
2023-02-09T08:01:35.256Z,35.28
2023-02-09T08:04:03.730Z,34.53
2023-02-09T08:06:42.634Z,34.97
2023-02-09T08:09:12.529Z,34.05
2023-02-09T08:11:46.011Z,36.08
2023-02-09T08:14:17.354Z,38.25
2023-02-09T08:16:46.059Z,37.30
2023-02-09T08:19:18.104Z,41.80
2023-02-09T08:21:48.739Z,57.72
2023-02-09T08:27:10.521Z,103.97
2023-02-09T08:29:39.156Z,89.60
2023-02-09T08:32:07.611Z,59.60
2023-02-09T08:34:35.972Z,55.38
2023-02-09T08:37:05.459Z,58.83
2023-02-09T08:39:33.787Z,43.90
2023-02-09T08:42:02.315Z,41.30
2023-02-09T08:44:30.811Z,48.33
2023-02-09T08:47:05.418Z,36.22
2023-02-09T08:49:33.509Z,36.45
2023-02-09T08:52:02.130Z,46.95
2023-02-09T08:54:39.312Z,45.28
2023-02-09T08:57:10.052Z,34.88
2023-02-09T08:59:38.585Z,39.50
2023-02-09T09:02:07.133Z,41.40
2023-02-09T09:04:35.596Z,37.97
2023-02-09T09:07:04.272Z,43.63
2023-02-09T09:09:33.988Z,39.03
2023-02-09T09:12:04.725Z,33.95
2023-02-09T09:14:34.364Z,35.47
2023-02-09T09:17:02.848Z,34.65
2023-02-09T09:19:31.449Z,36.65
2023-02-09T09:22:02.657Z,40.80
2023-02-09T09:24:34.997Z,34.03
2023-02-09T09:27:03.362Z,38.28
2023-02-09T09:29:43.039Z,42.30
2023-02-09T09:32:13.941Z,35.65
2023-02-09T09:34:42.528Z,38.75
2023-02-09T09:37:10.770Z,38.05
2023-02-09T09:39:40.482Z,34.58
2023-02-09T09:42:24.174Z,34.00
2023-02-09T09:44:53.471Z,33.35
2023-02-09T09:47:27.941Z,35.35
2023-02-09T09:49:56.926Z,38.92
2023-02-09T09:52:33.903Z,37.38
2023-02-09T09:55:08.120Z,35.55
2023-02-09T09:57:48.074Z,44.72
2023-02-09T10:00:20.544Z,38.30
2023-02-09T10:02:49.138Z,40.88
2023-02-09T10:05:19.995Z,35.13
2023-02-09T10:07:55.141Z,34.92
2023-02-09T10:10:37.068Z,35.35
2023-02-09T10:13:14.592Z,44.85
2023-02-09T10:15:43.197Z,36.42
2023-02-09T10:18:16.607Z,34.25
2023-02-09T10:20:49.560Z,32.50
2023-02-09T10:26:04.531Z,37.15
2023-02-09T10:28:42.857Z,37.38
2023-02-09T10:31:19.422Z,40.15
2023-02-09T10:33:53.613Z,36.13
2023-02-09T10:36:27.757Z,36.15
2023-02-09T10:39:07.524Z,33.55
2023-02-09T10:41:48.173Z,41.85
2023-02-09T10:44:20.618Z,36.10
2023-02-09T10:46:49.388Z,35.50
2023-02-09T10:49:30.496Z,36.22
2023-02-09T10:52:15.026Z,38.30
2023-02-09T10:54:45.617Z,42.33
2023-02-09T10:57:24.675Z,36.70
2023-02-09T10:59:54.344Z,37.60
2023-02-09T11:02:37.029Z,39.97
2023-02-09T11:05:25.771Z,40.63
2023-02-09T11:07:58.079Z,44.35
2023-02-09T11:10:27.842Z,37.25
2023-02-09T11:12:59.489Z,43.40
2023-02-09T11:15:34.098Z,36.95
2023-02-09T11:18:07.704Z,43.50
2023-02-09T11:20:41.781Z,45.72
2023-02-09T11:23:38.050Z,49.67
2023-02-09T11:26:13.752Z,49.83
2023-02-09T11:28:52.925Z,46.20
2023-02-09T11:31:39.946Z,42.50
2023-02-09T11:34:19.940Z,44.83
2023-02-09T11:36:55.544Z,51.92
2023-02-09T11:39:30.969Z,48.97
2023-02-09T11:42:22.083Z,45.65
2023-02-09T11:44:59.959Z,44.30
2023-02-09T11:47:34.584Z,42.85
2023-02-09T11:50:11.380Z,48.83
2023-02-09T11:52:50.426Z,44.22
2023-02-09T11:55:34.667Z,43.83
2023-02-09T11:58:16.389Z,47.95
2023-02-09T12:01:01.687Z,41.70
2023-02-09T12:03:35.492Z,45.20
2023-02-09T12:06:05.961Z,45.10
2023-02-09T12:09:00.107Z,44.90
2023-02-09T12:11:48.362Z,39.08
2023-02-09T12:14:28.410Z,39.85
2023-02-09T12:17:08.379Z,42.75
2023-02-09T12:26:10.366Z,41.72
2023-02-09T12:28:42.868Z,43.25
2023-02-09T12:31:21.606Z,46.90
2023-02-09T12:34:31.567Z,43.58
2023-02-09T12:37:29.214Z,41.88
2023-02-09T12:40:22.828Z,46.53
2023-02-09T12:43:28.653Z,42.58
2023-02-09T12:46:44.922Z,42.42
2023-02-09T12:49:24.514Z,42.85
2023-02-09T12:52:15.420Z,43.42
2023-02-09T12:54:49.198Z,41.00
2023-02-09T12:57:54.286Z,41.35
2023-02-09T13:00:57.698Z,41.20
2023-02-09T13:03:27.770Z,43.03
2023-02-09T13:06:00.882Z,47.13
2023-02-09T13:11:19.674Z,43.83
2023-02-09T13:13:54.696Z,44.88
2023-02-09T13:16:56.515Z,44.83
2023-02-09T13:20:05.943Z,45.58
2023-02-09T13:22:51.510Z,46.08
2023-02-09T13:25:33.610Z,38.72
2023-02-09T13:28:14.405Z,43.15
2023-02-09T13:30:46.688Z,38.78
2023-02-09T13:33:56.978Z,44.58
2023-02-09T13:37:08.313Z,41.70
2023-02-09T13:39:39.764Z,38.00
2023-02-09T13:42:21.506Z,38.90
2023-02-09T13:44:53.048Z,41.88
2023-02-09T13:47:21.679Z,43.08
2023-02-09T13:50:03.503Z,37.85
2023-02-09T13:52:38.638Z,38.65
2023-02-09T13:55:13.604Z,45.25
2023-02-09T13:57:55.947Z,42.00
2023-02-09T14:00:31.724Z,44.93
2023-02-09T14:03:02.815Z,42.22
2023-02-09T14:05:41.844Z,50.42
2023-02-09T14:08:14.056Z,45.33
2023-02-09T14:10:44.809Z,44.67
2023-02-09T14:13:21.041Z,43.97
2023-02-09T14:16:09.089Z,42.63
2023-02-09T14:18:46.342Z,45.35
2023-02-09T14:21:23.778Z,43.13
2023-02-09T14:24:19.248Z,44.03
2023-02-09T14:26:53.948Z,43.40
2023-02-09T14:29:30.314Z,43.45
2023-02-09T14:32:06.342Z,43.35
2023-02-09T14:34:39.504Z,43.67
2023-02-09T14:37:29.833Z,43.50
2023-02-09T14:40:01.271Z,38.88
2023-02-09T14:42:30.280Z,40.00
2023-02-09T14:45:04.258Z,40.80
2023-02-09T14:47:56.056Z,41.15
2023-02-09T14:50:26.402Z,39.53
2023-02-09T14:53:06.543Z,41.78
2023-02-09T14:55:40.446Z,38.78
2023-02-09T14:58:21.900Z,39.35
2023-02-09T15:01:09.960Z,42.88
2023-02-09T15:03:38.531Z,36.00
2023-02-09T15:06:07.727Z,43.95
2023-02-09T15:08:39.791Z,36.85
2023-02-09T15:11:25.723Z,39.95
2023-02-09T15:13:58.059Z,39.17
2023-02-09T15:16:28.233Z,38.90
2023-02-09T15:18:57.125Z,40.40
2023-02-09T15:21:25.724Z,40.42
2023-02-09T15:23:54.456Z,41.67
2023-02-09T15:26:26.735Z,41.45
2023-02-09T15:28:57.868Z,41.05
2023-02-09T15:31:35.837Z,42.70
2023-02-09T15:34:05.213Z,40.35
2023-02-09T15:36:34.054Z,48.35
2023-02-09T15:39:02.536Z,44.72
2023-02-09T15:41:48.714Z,46.20
2023-02-09T15:44:36.718Z,50.05
2023-02-09T15:47:24.369Z,53.78
2023-02-09T15:49:52.864Z,48.70
2023-02-09T15:52:21.413Z,57.60
2023-02-09T15:54:52.040Z,52.65
2023-02-09T15:57:20.569Z,58.75
2023-02-09T15:59:51.696Z,54.70
2023-02-09T16:02:22.347Z,56.47
2023-02-09T16:04:51.491Z,49.20
2023-02-09T16:07:25.251Z,55.10
2023-02-09T16:09:53.708Z,50.70
2023-02-09T16:12:22.305Z,47.85
2023-02-09T16:14:52.941Z,49.67
2023-02-09T16:17:22.765Z,46.95
2023-02-09T16:19:51.258Z,46.45
2023-02-09T16:22:23.621Z,46.53
2023-02-09T16:24:52.127Z,53.40
2023-02-09T16:27:25.143Z,49.25
2023-02-09T16:32:26.810Z,52.05
2023-02-09T16:35:07.348Z,47.42
2023-02-09T16:37:44.611Z,46.13
2023-02-09T16:40:25.622Z,54.00
2023-02-09T16:42:54.250Z,48.00
2023-02-09T16:45:24.473Z,52.70
2023-02-09T16:47:59.136Z,46.50
2023-02-09T16:50:33.011Z,45.25
2023-02-09T16:53:03.403Z,43.55
2023-02-09T16:55:33.002Z,50.67
2023-02-09T16:58:02.813Z,46.63
2023-02-09T17:00:33.530Z,49.03
2023-02-09T17:03:07.568Z,53.55
2023-02-09T17:05:37.600Z,44.47
2023-02-09T17:08:16.295Z,48.55
2023-02-09T17:10:44.682Z,50.15
2023-02-09T17:13:13.344Z,49.53
2023-02-09T17:15:46.660Z,49.65
2023-02-09T17:18:20.186Z,49.10
2023-02-09T17:20:53.209Z,56.90
2023-02-09T17:25:55.129Z,55.75
2023-02-09T17:28:27.871Z,47.42
2023-02-09T17:30:59.042Z,52.83
2023-02-09T17:33:31.662Z,51.38
2023-02-09T17:38:49.343Z,49.95
2023-02-09T17:41:19.587Z,71.70
2023-02-09T17:43:48.220Z,81.13
2023-02-09T17:46:18.824Z,92.93
2023-02-09T17:48:49.229Z,89.22
2023-02-09T17:51:22.165Z,107.85
2023-02-09T17:56:19.474Z,86.07
2023-02-09T17:58:47.874Z,87.68
2023-02-09T18:01:26.569Z,78.50
2023-02-09T18:03:58.262Z,72.38
2023-02-09T18:06:33.723Z,81.88
2023-02-09T18:09:03.025Z,75.13
2023-02-09T18:11:43.249Z,90.43
2023-02-09T18:14:14.498Z,84.05
2023-02-09T18:16:43.330Z,75.78
2023-02-09T18:19:13.749Z,75.07
2023-02-09T18:21:48.784Z,77.93
2023-02-09T18:24:17.596Z,81.15
2023-02-09T18:26:46.990Z,77.32
2023-02-09T18:29:15.755Z,91.72
2023-02-09T18:31:44.190Z,83.50
2023-02-09T18:34:16.703Z,90.75
2023-02-09T18:36:48.714Z,87.10
2023-02-09T18:39:18.007Z,84.33
2023-02-09T18:41:48.621Z,82.43
2023-02-09T18:44:19.181Z,76.28
2023-02-09T18:46:48.113Z,76.13
2023-02-09T18:49:20.763Z,83.85
2023-02-09T18:51:49.448Z,81.22
2023-02-09T18:54:17.831Z,83.18
2023-02-09T18:56:46.342Z,78.03
2023-02-09T18:59:17.516Z,78.63
2023-02-09T19:01:46.542Z,74.82
2023-02-09T19:04:15.234Z,79.63
2023-02-09T19:06:44.723Z,131.32
2023-02-09T19:09:15.728Z,132.10
2023-02-09T19:11:44.082Z,113.00
2023-02-09T19:14:29.972Z,109.28
2023-02-09T19:16:58.475Z,99.93
2023-02-09T19:19:26.955Z,107.65
2023-02-09T19:21:58.046Z,113.25
2023-02-09T19:24:28.516Z,101.53
2023-02-09T19:27:00.140Z,91.85
2023-02-09T19:29:29.103Z,95.85
2023-02-09T19:31:57.951Z,87.72
2023-02-09T19:34:26.504Z,97.30
2023-02-09T19:36:55.132Z,155.02
2023-02-09T19:39:25.493Z,125.13
2023-02-09T19:41:53.846Z,86.93
2023-02-09T19:44:23.631Z,81.05
2023-02-09T19:46:52.598Z,88.35
2023-02-09T19:49:21.414Z,87.35
2023-02-09T19:51:49.713Z,75.93
2023-02-09T19:54:18.117Z,70.50
2023-02-09T19:56:47.441Z,63.97
2023-02-09T19:59:16.972Z,60.70
2023-02-09T20:01:45.710Z,63.90
2023-02-09T20:04:14.558Z,71.45
2023-02-09T20:06:42.892Z,70.22
2023-02-09T20:09:12.330Z,69.35
2023-02-09T20:11:40.644Z,74.40
2023-02-09T20:14:10.614Z,68.43
2023-02-09T20:16:39.107Z,64.15
2023-02-09T20:19:07.694Z,64.45
2023-02-09T20:21:36.371Z,63.53
2023-02-09T20:24:09.556Z,60.72
2023-02-09T20:26:38.040Z,63.08
2023-02-09T20:29:07.546Z,63.42
2023-02-09T20:31:39.414Z,67.15
2023-02-09T20:34:11.546Z,56.17
2023-02-09T20:36:41.516Z,62.45
2023-02-09T20:39:16.044Z,61.42
2023-02-09T20:42:02.875Z,55.20
2023-02-09T20:44:48.852Z,56.53
2023-02-09T20:47:19.112Z,58.85
2023-02-09T20:49:51.001Z,64.38
2023-02-09T20:52:21.088Z,55.97
2023-02-09T20:54:49.572Z,62.95
2023-02-09T20:57:18.281Z,71.90
2023-02-09T20:59:46.968Z,69.97
2023-02-09T21:02:25.463Z,65.88
2023-02-09T21:05:05.068Z,65.25
2023-02-09T21:07:45.440Z,61.55
2023-02-09T21:10:36.345Z,66.95
2023-02-09T21:13:08.249Z,67.60
2023-02-09T21:15:48.054Z,77.93
2023-02-09T21:18:19.163Z,67.93
2023-02-09T21:20:47.770Z,79.65
2023-02-09T21:23:17.258Z,71.68
2023-02-09T21:25:46.343Z,86.25
2023-02-09T21:28:15.224Z,89.43
2023-02-09T21:30:45.971Z,89.85
2023-02-09T21:33:14.779Z,79.78
2023-02-09T21:35:44.750Z,77.43
2023-02-09T21:38:13.089Z,79.03
2023-02-09T21:40:41.804Z,95.40
2023-02-09T21:43:10.501Z,79.32
2023-02-09T21:45:40.455Z,81.78
2023-02-09T21:48:08.950Z,78.25
2023-02-09T21:50:37.540Z,77.97
2023-02-09T21:53:17.021Z,69.03
2023-02-09T21:56:15.014Z,76.47
2023-02-09T21:58:43.975Z,70.65
2023-02-09T22:01:27.154Z,70.43
2023-02-09T22:04:05.361Z,71.47
2023-02-09T22:06:39.402Z,76.75
2023-02-09T22:09:11.159Z,80.43
2023-02-09T22:11:42.576Z,65.05
2023-02-09T22:14:11.863Z,62.33
2023-02-09T22:16:43.144Z,64.68
2023-02-09T22:19:14.422Z,66.38
2023-02-09T22:21:45.998Z,66.43
2023-02-09T22:24:26.388Z,69.03
2023-02-09T22:26:55.065Z,58.42
2023-02-09T22:29:25.739Z,64.13
2023-02-09T22:31:56.432Z,64.57
2023-02-09T22:34:28.577Z,61.73
2023-02-09T22:36:57.066Z,61.13
2023-02-09T22:39:26.724Z,58.75
2023-02-09T22:41:58.160Z,59.13
2023-02-09T22:44:27.977Z,56.90
2023-02-09T22:46:58.694Z,60.20
2023-02-09T22:49:28.457Z,63.80
2023-02-09T22:51:56.981Z,63.65
2023-02-09T22:54:27.219Z,68.07
2023-02-09T22:56:55.571Z,73.65
2023-02-09T22:59:24.212Z,74.65
2023-02-09T23:01:55.221Z,65.90
2023-02-09T23:04:23.768Z,69.93
2023-02-09T23:06:54.973Z,83.95
2023-02-09T23:09:23.404Z,83.93
2023-02-09T23:11:53.194Z,74.18
2023-02-09T23:14:21.878Z,78.80
2023-02-09T23:16:53.740Z,76.05
2023-02-09T23:19:23.611Z,79.23
2023-02-09T23:21:53.399Z,75.88
2023-02-09T23:24:24.466Z,73.55
2023-02-09T23:26:54.324Z,62.55
2023-02-09T23:29:26.127Z,65.63
2023-02-09T23:31:54.549Z,64.63
2023-02-09T23:34:26.710Z,63.47
2023-02-09T23:36:55.039Z,65.00
2023-02-09T23:39:25.667Z,71.53
2023-02-09T23:41:55.167Z,70.93
2023-02-09T23:44:23.443Z,70.20
2023-02-09T23:46:51.654Z,75.78
2023-02-09T23:49:19.892Z,77.15
2023-02-09T23:51:48.239Z,63.83
2023-02-09T23:54:16.531Z,65.75
2023-02-09T23:56:46.666Z,70.40
2023-02-09T23:59:16.627Z,70.70
